createdAt,value
2022-12-18T00:02:12.125Z,66.61
2022-12-18T00:04:38.629Z,67.27
2022-12-18T00:07:05.079Z,66.82
2022-12-18T00:09:40.292Z,67.15
2022-12-18T00:14:42.920Z,67.04
2022-12-18T00:17:09.328Z,66.88
2022-12-18T00:19:35.779Z,67.15
2022-12-18T00:22:02.283Z,66.76
2022-12-18T00:24:28.711Z,66.76
2022-12-18T00:26:55.148Z,66.99
2022-12-18T00:29:21.631Z,66.92
2022-12-18T00:31:48.469Z,67.11
2022-12-18T00:34:15.056Z,66.53
2022-12-18T00:36:42.116Z,66.56
2022-12-18T00:39:09.388Z,67.04
2022-12-18T00:41:54.826Z,66.77
2022-12-18T00:44:21.369Z,67.22
2022-12-18T00:46:49.148Z,67.27
2022-12-18T00:49:20.434Z,66.45
2022-12-18T00:51:47.666Z,66.96
2022-12-18T00:54:14.287Z,66.78
2022-12-18T00:56:48.310Z,66.52
2022-12-18T00:59:17.514Z,66.95
2022-12-18T01:01:44.154Z,67.34
2022-12-18T01:04:10.860Z,66.63
2022-12-18T01:06:37.550Z,66.44
2022-12-18T01:09:04.187Z,66.85
2022-12-18T01:11:30.668Z,67.28
2022-12-18T01:13:57.182Z,66.80
2022-12-18T01:16:24.110Z,66.73
2022-12-18T01:18:55.455Z,66.36
2022-12-18T01:21:23.276Z,66.47
2022-12-18T01:23:53.746Z,66.86
2022-12-18T01:26:20.443Z,66.88
2022-12-18T01:28:47.076Z,67.07
2022-12-18T01:31:28.469Z,66.98
2022-12-18T01:33:56.624Z,66.70
2022-12-18T01:36:28.823Z,66.36
2022-12-18T01:38:56.092Z,66.40
2022-12-18T01:41:26.350Z,66.46
2022-12-18T01:43:58.817Z,66.85
2022-12-18T01:46:26.404Z,67.04
2022-12-18T01:49:02.275Z,66.85
2022-12-18T01:51:30.795Z,66.63
2022-12-18T01:53:59.988Z,66.55
2022-12-18T01:56:26.742Z,67.18
2022-12-18T01:59:02.850Z,66.40
2022-12-18T02:01:31.161Z,66.72
2022-12-18T02:04:24.464Z,66.38
2022-12-18T02:07:24.399Z,66.90
2022-12-18T02:10:12.098Z,67.09
2022-12-18T02:13:28.107Z,66.73
2022-12-18T02:16:05.824Z,66.35
2022-12-18T02:18:39.319Z,66.61
2022-12-18T02:21:27.690Z,66.75
2022-12-18T02:24:25.169Z,66.59
2022-12-18T02:26:57.385Z,66.75
2022-12-18T02:29:38.085Z,66.36
2022-12-18T02:32:14.757Z,66.82
2022-12-18T02:34:44.161Z,66.82
2022-12-18T02:37:18.856Z,66.33
2022-12-18T02:39:49.164Z,66.63
2022-12-18T02:42:17.618Z,66.70
2022-12-18T02:44:46.306Z,66.90
2022-12-18T02:47:17.718Z,66.41
2022-12-18T02:50:06.116Z,66.38
2022-12-18T02:52:50.240Z,66.41
2022-12-18T02:55:23.120Z,66.60
2022-12-18T02:58:15.061Z,66.63
2022-12-18T03:00:48.569Z,66.76
2022-12-18T03:03:31.097Z,66.35
2022-12-18T03:06:22.361Z,66.91
2022-12-18T03:08:54.872Z,66.94
2022-12-18T03:11:44.129Z,66.63
2022-12-18T03:14:13.798Z,66.57
2022-12-18T03:16:43.153Z,66.52
2022-12-18T03:19:19.965Z,66.66
2022-12-18T03:21:54.198Z,66.94
2022-12-18T03:24:23.404Z,67.13
2022-12-18T03:26:59.073Z,67.02
2022-12-18T03:29:36.854Z,66.67
2022-12-18T03:32:10.519Z,66.42
2022-12-18T03:34:42.536Z,66.19
2022-12-18T03:37:12.300Z,66.26
2022-12-18T03:39:38.759Z,66.59
2022-12-18T03:42:22.574Z,66.65
2022-12-18T03:45:23.157Z,66.47
2022-12-18T03:48:03.908Z,66.65
2022-12-18T03:50:43.478Z,66.67
2022-12-18T03:53:29.705Z,66.60
2022-12-18T03:55:58.339Z,66.57
2022-12-18T03:58:30.591Z,67.05
2022-12-18T04:01:10.851Z,66.38
2022-12-18T04:03:39.176Z,66.63
2022-12-18T04:06:08.237Z,66.53
2022-12-18T04:08:35.844Z,66.67
2022-12-18T04:11:06.862Z,66.88
2022-12-18T04:13:38.279Z,66.86
2022-12-18T04:16:10.428Z,66.20
2022-12-18T04:18:40.511Z,66.27
2022-12-18T04:21:08.615Z,66.64
2022-12-18T04:23:35.212Z,66.48
2022-12-18T04:26:02.191Z,66.34
2022-12-18T04:28:42.391Z,66.08
2022-12-18T04:31:09.737Z,66.33
2022-12-18T04:33:36.623Z,66.43
2022-12-18T04:36:03.917Z,66.83
2022-12-18T04:38:30.593Z,66.53
2022-12-18T04:41:04.209Z,66.16
2022-12-18T04:43:30.727Z,66.38
2022-12-18T04:46:05.049Z,66.65
2022-12-18T04:48:31.925Z,66.70
2022-12-18T04:50:58.397Z,66.56
2022-12-18T04:53:24.823Z,66.72
2022-12-18T04:55:51.260Z,66.41
2022-12-18T04:58:17.713Z,65.97
2022-12-18T05:00:44.189Z,66.82
2022-12-18T05:03:10.580Z,66.44
2022-12-18T05:05:37.000Z,66.55
2022-12-18T05:08:03.527Z,66.79
2022-12-18T05:10:36.216Z,66.39
2022-12-18T05:13:04.633Z,66.45
2022-12-18T05:15:32.640Z,66.56
2022-12-18T05:18:00.219Z,66.46
2022-12-18T05:20:28.552Z,66.12
2022-12-18T05:22:56.444Z,66.17
2022-12-18T05:25:23.428Z,66.32
2022-12-18T05:27:50.337Z,66.13
2022-12-18T05:30:17.781Z,66.54
2022-12-18T05:32:44.187Z,66.42
2022-12-18T05:35:11.806Z,66.34
2022-12-18T05:37:43.010Z,66.56
2022-12-18T05:40:11.057Z,66.48
2022-12-18T05:42:37.696Z,66.21
2022-12-18T05:45:05.350Z,66.31
2022-12-18T05:47:31.867Z,66.61
2022-12-18T05:49:58.410Z,66.25
2022-12-18T05:52:25.416Z,66.08
2022-12-18T05:54:51.830Z,66.33
2022-12-18T05:57:18.508Z,66.19
2022-12-18T05:59:45.082Z,66.08
2022-12-18T06:02:11.555Z,66.33
2022-12-18T06:04:38.233Z,66.13
2022-12-18T06:07:04.703Z,66.30
2022-12-18T06:09:31.209Z,66.05
2022-12-18T06:11:57.720Z,66.11
2022-12-18T06:14:24.183Z,66.33
2022-12-18T06:16:52.601Z,66.06
2022-12-18T06:19:19.053Z,66.40
2022-12-18T06:21:45.487Z,66.10
2022-12-18T06:24:12.054Z,66.11
2022-12-18T06:26:39.934Z,66.19
2022-12-18T06:29:06.875Z,65.99
2022-12-18T06:31:33.567Z,65.97
2022-12-18T06:34:00.273Z,65.66
2022-12-18T06:36:27.931Z,65.89
2022-12-18T06:38:55.584Z,66.08
2022-12-18T06:41:22.954Z,66.06
2022-12-18T06:43:49.645Z,66.34
2022-12-18T06:46:16.494Z,66.32
2022-12-18T06:48:42.940Z,66.36
2022-12-18T06:51:09.410Z,66.20
2022-12-18T06:53:35.992Z,66.27
2022-12-18T06:56:10.361Z,66.19
2022-12-18T06:58:37.486Z,66.27
2022-12-18T07:01:06.404Z,66.31
2022-12-18T07:03:32.870Z,66.24
2022-12-18T07:05:59.336Z,66.17
2022-12-18T07:08:26.123Z,66.11
2022-12-18T07:10:56.054Z,66.02
2022-12-18T07:13:23.168Z,66.17
2022-12-18T07:15:49.559Z,66.25
2022-12-18T07:18:16.185Z,66.15
2022-12-18T07:20:42.632Z,66.22
2022-12-18T07:23:09.066Z,65.95
2022-12-18T07:25:36.271Z,65.76
2022-12-18T07:28:02.851Z,66.04
2022-12-18T07:30:30.017Z,66.30
2022-12-18T07:32:56.724Z,66.30
2022-12-18T07:35:25.169Z,65.89
2022-12-18T07:37:51.906Z,65.94
2022-12-18T07:40:18.439Z,66.03
2022-12-18T07:42:44.885Z,65.86
2022-12-18T07:45:11.814Z,65.87
2022-12-18T07:47:38.365Z,65.52
2022-12-18T07:50:05.746Z,65.89
2022-12-18T07:52:32.224Z,65.94
2022-12-18T07:54:59.509Z,65.84
2022-12-18T08:00:13.231Z,65.99
2022-12-18T08:02:39.764Z,65.89
2022-12-18T08:05:06.417Z,65.65
2022-12-18T08:07:33.599Z,66.11
2022-12-18T08:10:00.104Z,66.10
2022-12-18T08:12:26.532Z,66.20
2022-12-18T08:14:52.964Z,66.20
2022-12-18T08:17:20.957Z,66.26
2022-12-18T08:19:47.412Z,66.04
2022-12-18T08:22:13.882Z,66.10
2022-12-18T08:24:40.341Z,66.01
2022-12-18T08:27:28.328Z,66.08
2022-12-18T08:29:53.701Z,65.64
2022-12-18T08:32:20.252Z,65.91
2022-12-18T08:34:46.741Z,66.08
2022-12-18T08:37:13.368Z,66.08
2022-12-18T08:39:39.829Z,65.95
2022-12-18T08:42:24.931Z,65.70
2022-12-18T08:44:51.333Z,65.94
2022-12-18T08:47:17.745Z,66.36
2022-12-18T08:49:44.190Z,65.96
2022-12-18T08:52:10.712Z,66.19
2022-12-18T08:54:37.092Z,66.33
2022-12-18T08:57:03.547Z,66.11
2022-12-18T08:59:30.022Z,66.42
2022-12-18T09:01:56.713Z,66.42
2022-12-18T09:04:23.695Z,66.34
2022-12-18T09:06:50.230Z,66.42
2022-12-18T09:09:16.695Z,66.46
2022-12-18T09:11:43.127Z,66.68
2022-12-18T09:14:10.455Z,66.57
2022-12-18T09:16:36.947Z,66.66
2022-12-18T09:19:05.231Z,66.71
2022-12-18T09:21:36.830Z,66.31
2022-12-18T09:24:04.480Z,66.28
2022-12-18T09:26:33.488Z,66.60
2022-12-18T09:28:59.884Z,66.51
2022-12-18T09:31:26.407Z,66.32
2022-12-18T09:33:52.850Z,66.67
2022-12-18T09:36:19.855Z,66.31
2022-12-18T09:38:46.560Z,66.48
2022-12-18T09:41:34.493Z,66.63
2022-12-18T09:44:06.304Z,66.52
2022-12-18T09:46:41.606Z,66.63
2022-12-18T09:49:15.545Z,66.50
2022-12-18T09:51:48.372Z,66.57
2022-12-18T09:54:23.403Z,66.56
2022-12-18T09:56:50.163Z,66.61
2022-12-18T09:59:31.997Z,66.71
2022-12-18T10:01:58.608Z,66.74
2022-12-18T10:04:32.571Z,66.84
2022-12-18T10:07:09.508Z,66.54
2022-12-18T10:09:50.639Z,66.99
2022-12-18T10:12:26.469Z,66.83
2022-12-18T10:15:03.960Z,67.06
2022-12-18T10:17:47.010Z,67.04
2022-12-18T10:20:29.940Z,67.54
2022-12-18T10:23:09.041Z,67.55
2022-12-18T10:26:01.810Z,68.13
2022-12-18T10:28:31.615Z,68.17
2022-12-18T10:30:59.412Z,67.63
2022-12-18T10:33:30.883Z,67.74
2022-12-18T10:35:57.375Z,68.03
2022-12-18T10:38:32.644Z,67.99
2022-12-18T10:41:26.695Z,68.36
2022-12-18T10:44:13.684Z,68.47
2022-12-18T10:46:40.280Z,68.74
2022-12-18T10:49:19.503Z,68.57
2022-12-18T10:51:46.007Z,68.57
2022-12-18T10:54:23.446Z,68.73
2022-12-18T10:56:50.344Z,69.00
2022-12-18T10:59:19.057Z,69.00
2022-12-18T11:01:54.986Z,69.10
2022-12-18T11:04:24.585Z,69.21
2022-12-18T11:07:09.889Z,68.90
2022-12-18T11:09:38.720Z,68.28
2022-12-18T11:12:15.481Z,68.07
2022-12-18T11:14:54.372Z,68.45
2022-12-18T11:17:27.046Z,68.22
2022-12-18T11:20:27.484Z,68.03
2022-12-18T11:22:59.482Z,67.93
2022-12-18T11:25:35.079Z,67.61
2022-12-18T11:28:26.869Z,67.97
2022-12-18T11:31:24.344Z,68.07
2022-12-18T11:34:19.764Z,68.02
2022-12-18T11:36:46.913Z,67.61
2022-12-18T11:39:21.389Z,67.56
2022-12-18T11:42:12.292Z,67.84
2022-12-18T11:44:52.389Z,67.68
2022-12-18T11:47:45.021Z,67.89
2022-12-18T11:50:23.048Z,67.84
2022-12-18T11:52:55.948Z,67.30
2022-12-18T11:55:47.417Z,67.49
2022-12-18T11:58:32.790Z,67.34
2022-12-18T12:01:17.395Z,67.77
2022-12-18T12:04:25.797Z,68.05
2022-12-18T12:07:05.684Z,67.67
2022-12-18T12:10:06.913Z,67.79
2022-12-18T12:12:58.457Z,67.55
2022-12-18T12:15:40.154Z,67.19
2022-12-18T12:18:51.950Z,67.37
2022-12-18T12:21:41.972Z,67.31
2022-12-18T12:24:27.064Z,67.99
2022-12-18T12:26:59.057Z,67.52
2022-12-18T12:29:45.561Z,67.73
2022-12-18T12:32:13.147Z,67.22
2022-12-18T12:35:02.601Z,67.34
2022-12-18T12:37:46.161Z,67.36
2022-12-18T12:43:24.941Z,67.37
2022-12-18T12:46:11.846Z,67.32
2022-12-18T12:48:44.317Z,67.42
2022-12-18T12:51:27.346Z,67.45
2022-12-18T12:53:57.153Z,66.99
2022-12-18T12:56:28.657Z,67.44
2022-12-18T12:59:18.460Z,67.41
2022-12-18T13:02:03.554Z,67.55
2022-12-18T13:04:58.820Z,67.10
2022-12-18T13:07:46.999Z,67.63
2022-12-18T13:10:13.590Z,67.11
2022-12-18T13:13:10.543Z,66.94
2022-12-18T13:15:40.685Z,67.67
2022-12-18T13:18:10.181Z,67.48
2022-12-18T13:20:39.441Z,67.33
2022-12-18T13:23:27.614Z,67.49
2022-12-18T13:25:55.101Z,66.94
2022-12-18T13:28:41.812Z,67.27
2022-12-18T13:31:08.741Z,67.62
2022-12-18T13:34:23.936Z,67.27
2022-12-18T13:36:35.194Z,67.30
2022-12-18T13:39:32.768Z,67.34
2022-12-18T13:42:07.085Z,67.30
2022-12-18T13:44:40.587Z,67.01
2022-12-18T13:47:26.888Z,67.00
2022-12-18T13:49:53.741Z,67.39
2022-12-18T13:52:25.432Z,66.99
2022-12-18T13:54:54.714Z,67.14
2022-12-18T13:57:39.337Z,66.84
2022-12-18T14:00:25.841Z,66.91
2022-12-18T14:02:53.317Z,67.32
2022-12-18T14:05:24.656Z,66.91
2022-12-18T14:07:53.371Z,66.97
2022-12-18T14:13:09.440Z,67.40
2022-12-18T14:15:43.447Z,66.93
2022-12-18T14:18:30.348Z,66.78
2022-12-18T14:20:59.973Z,66.56
2022-12-18T14:23:43.526Z,66.62
2022-12-18T14:26:24.393Z,66.80
2022-12-18T14:28:51.216Z,67.07
2022-12-18T14:31:29.375Z,66.99
2022-12-18T14:33:56.174Z,66.62
2022-12-18T14:36:28.481Z,66.89
2022-12-18T14:38:56.891Z,66.81
2022-12-18T14:41:24.282Z,66.62
2022-12-18T14:43:53.380Z,66.79
2022-12-18T14:46:40.914Z,66.32
2022-12-18T14:49:43.140Z,66.38
2022-12-18T14:52:26.308Z,66.48
2022-12-18T14:54:53.632Z,67.03
2022-12-18T14:57:24.715Z,66.54
2022-12-18T14:59:51.863Z,66.86
2022-12-18T15:02:25.892Z,66.94
2022-12-18T15:05:12.692Z,66.50
2022-12-18T15:07:48.142Z,66.50
2022-12-18T15:10:29.309Z,66.50
2022-12-18T15:13:00.705Z,66.60
2022-12-18T15:15:43.652Z,66.44
2022-12-18T15:18:11.366Z,66.66
2022-12-18T15:20:41.967Z,66.75
2022-12-18T15:23:48.756Z,66.83
2022-12-18T15:26:17.565Z,66.72
2022-12-18T15:28:48.853Z,66.47
2022-12-18T15:31:17.729Z,66.58
2022-12-18T15:34:00.484Z,66.45
2022-12-18T15:36:27.593Z,66.66
2022-12-18T15:38:58.921Z,66.56
2022-12-18T15:41:35.797Z,67.03
2022-12-18T15:44:03.628Z,66.96
2022-12-18T15:46:31.772Z,66.60
2022-12-18T15:49:02.096Z,67.13
2022-12-18T15:51:33.171Z,67.04
2022-12-18T15:54:01.816Z,66.83
2022-12-18T15:56:46.948Z,66.69
2022-12-18T15:59:15.714Z,66.93
2022-12-18T16:01:44.488Z,66.78
2022-12-18T16:04:16.417Z,66.72
2022-12-18T16:07:12.841Z,66.51
2022-12-18T16:09:29.618Z,66.96
2022-12-18T16:11:56.058Z,66.93
2022-12-18T16:14:29.406Z,67.22
2022-12-18T16:17:01.501Z,67.07
2022-12-18T16:19:28.906Z,67.04
2022-12-18T16:21:57.725Z,66.72
2022-12-18T16:24:27.454Z,66.64
2022-12-18T16:26:55.448Z,66.97
2022-12-18T16:29:28.036Z,66.67
2022-12-18T16:32:01.463Z,66.68
2022-12-18T16:34:36.069Z,66.82
2022-12-18T16:37:06.300Z,66.90
2022-12-18T16:39:37.351Z,67.44
2022-12-18T16:42:19.786Z,67.21
2022-12-18T16:44:47.342Z,66.79
2022-12-18T16:47:15.319Z,66.96
2022-12-18T16:49:43.248Z,67.03
2022-12-18T16:52:09.654Z,67.30
2022-12-18T16:54:36.626Z,67.10
2022-12-18T16:57:05.154Z,66.88
2022-12-18T16:59:32.300Z,66.95
2022-12-18T17:01:58.904Z,67.15
2022-12-18T17:04:25.421Z,67.33
2022-12-18T17:06:53.733Z,67.05
2022-12-18T17:09:23.956Z,67.09
2022-12-18T17:11:50.836Z,67.23
2022-12-18T17:14:21.345Z,67.36
2022-12-18T17:16:57.835Z,67.28
2022-12-18T17:19:34.449Z,67.02
2022-12-18T17:22:00.905Z,67.45
2022-12-18T17:24:33.051Z,67.20
2022-12-18T17:27:01.410Z,67.10
2022-12-18T17:29:27.829Z,67.16
2022-12-18T17:31:54.282Z,66.69
2022-12-18T17:34:21.829Z,66.65
2022-12-18T17:36:50.956Z,67.12
2022-12-18T17:39:20.392Z,67.30
2022-12-18T17:41:47.471Z,66.95
2022-12-18T17:44:14.274Z,66.94
2022-12-18T17:46:41.857Z,66.92
2022-12-18T17:49:08.408Z,67.01
2022-12-18T17:51:34.951Z,67.44
2022-12-18T17:54:01.379Z,66.85
2022-12-18T17:56:27.865Z,67.13
2022-12-18T17:58:54.346Z,66.88
2022-12-18T18:01:25.005Z,66.97
2022-12-18T18:03:53.818Z,66.98
2022-12-18T18:06:20.635Z,67.00
2022-12-18T18:08:47.202Z,67.32
2022-12-18T18:11:35.224Z,66.83
2022-12-18T18:14:02.778Z,66.90
2022-12-18T18:16:38.070Z,67.37
2022-12-18T18:19:06.989Z,67.10
2022-12-18T18:21:34.322Z,67.56
2022-12-18T18:24:04.249Z,67.02
2022-12-18T18:26:32.276Z,66.80
2022-12-18T18:29:05.207Z,67.14
2022-12-18T18:31:35.705Z,67.38
2022-12-18T18:34:07.919Z,67.32
2022-12-18T18:36:34.589Z,67.20
2022-12-18T18:39:01.451Z,67.33
2022-12-18T18:41:29.854Z,67.22
2022-12-18T18:43:57.861Z,67.21
2022-12-18T18:46:25.215Z,67.04
2022-12-18T18:48:52.288Z,67.49
2022-12-18T18:51:21.074Z,66.97
2022-12-18T18:53:50.181Z,67.19
2022-12-18T18:59:09.398Z,67.53
2022-12-18T19:01:35.942Z,67.05
2022-12-18T19:04:04.775Z,67.31
2022-12-18T19:06:31.298Z,67.24
2022-12-18T19:08:58.995Z,66.86
2022-12-18T19:11:44.615Z,67.00
2022-12-18T19:14:13.820Z,67.13
2022-12-18T19:16:41.601Z,67.04
2022-12-18T19:19:08.492Z,67.07
2022-12-18T19:21:35.497Z,67.09
2022-12-18T19:24:02.886Z,67.38
2022-12-18T19:26:29.553Z,66.97
2022-12-18T19:29:03.353Z,66.83
2022-12-18T19:31:35.176Z,67.30
2022-12-18T19:34:03.289Z,66.98
2022-12-18T19:36:31.073Z,66.92
2022-12-18T19:39:00.897Z,66.92
2022-12-18T19:41:31.147Z,66.42
2022-12-18T19:43:58.468Z,66.78
2022-12-18T19:46:25.173Z,66.85
2022-12-18T19:48:52.171Z,66.99
2022-12-18T19:51:22.301Z,66.68
2022-12-18T19:53:52.494Z,67.20
2022-12-18T19:56:25.408Z,67.29
2022-12-18T19:58:52.453Z,66.75
2022-12-18T20:01:21.675Z,67.55
2022-12-18T20:03:52.426Z,67.05
2022-12-18T20:06:32.676Z,67.22
2022-12-18T20:09:01.742Z,66.96
2022-12-18T20:11:29.779Z,66.97
2022-12-18T20:13:57.346Z,67.54
2022-12-18T20:16:23.891Z,66.63
2022-12-18T20:18:50.438Z,67.13
2022-12-18T20:21:17.792Z,67.16
2022-12-18T20:23:45.101Z,67.35
2022-12-18T20:26:11.712Z,67.05
2022-12-18T20:28:40.005Z,66.90
2022-12-18T20:31:08.411Z,66.97
2022-12-18T20:33:40.269Z,67.06
2022-12-18T20:36:10.424Z,67.28
2022-12-18T20:38:39.019Z,66.92
2022-12-18T20:41:11.878Z,67.06
2022-12-18T20:43:39.520Z,67.03
2022-12-18T20:46:09.644Z,67.29
2022-12-18T20:48:36.793Z,67.38
2022-12-18T20:51:09.079Z,67.68
2022-12-18T20:53:36.100Z,67.04
2022-12-18T20:56:31.024Z,66.60
2022-12-18T20:58:58.762Z,67.23
2022-12-18T21:01:26.863Z,67.58
2022-12-18T21:03:53.857Z,67.20
2022-12-18T21:06:21.854Z,67.14
2022-12-18T21:08:49.207Z,67.05
2022-12-18T21:11:40.510Z,66.99
2022-12-18T21:14:13.050Z,67.35
2022-12-18T21:16:40.241Z,67.73
2022-12-18T21:19:06.896Z,67.37
2022-12-18T21:21:37.219Z,67.21
2022-12-18T21:24:06.034Z,67.62
2022-12-18T21:26:32.521Z,67.04
2022-12-18T21:29:02.034Z,67.04
2022-12-18T21:31:30.787Z,66.69
2022-12-18T21:34:02.055Z,67.38
2022-12-18T21:36:29.921Z,67.05
2022-12-18T21:38:57.594Z,67.43
2022-12-18T21:41:56.067Z,67.32
2022-12-18T21:44:22.945Z,67.22
2022-12-18T21:46:56.752Z,67.34
2022-12-18T21:49:27.361Z,66.81
2022-12-18T21:51:57.003Z,67.23
2022-12-18T21:54:25.197Z,67.02
2022-12-18T21:57:03.113Z,66.55
2022-12-18T21:59:35.229Z,66.90
2022-12-18T22:02:06.895Z,67.08
2022-12-18T22:04:34.291Z,67.01
2022-12-18T22:07:02.386Z,67.00
2022-12-18T22:09:29.586Z,67.50
2022-12-18T22:11:56.940Z,67.29
2022-12-18T22:14:23.779Z,67.08
2022-12-18T22:16:51.095Z,66.92
2022-12-18T22:19:19.430Z,66.79
2022-12-18T22:21:48.562Z,67.13
2022-12-18T22:24:17.745Z,66.81
2022-12-18T22:26:45.885Z,67.14
2022-12-18T22:29:39.509Z,66.76
2022-12-18T22:32:07.405Z,67.20
2022-12-18T22:34:36.900Z,67.09
2022-12-18T22:37:03.468Z,67.17
2022-12-18T22:39:30.383Z,67.04
2022-12-18T22:41:58.113Z,67.33
2022-12-18T22:44:24.614Z,67.31
2022-12-18T22:47:05.432Z,67.15
2022-12-18T22:49:35.110Z,67.26
2022-12-18T22:52:02.837Z,66.87
2022-12-18T22:54:29.310Z,67.16
2022-12-18T22:56:55.730Z,66.97
2022-12-18T22:59:23.453Z,66.52
2022-12-18T23:01:54.221Z,67.17
2022-12-18T23:04:29.141Z,66.42
2022-12-18T23:07:04.421Z,67.09
2022-12-18T23:09:31.117Z,66.82
2022-12-18T23:11:57.652Z,67.49
2022-12-18T23:14:24.044Z,67.14
2022-12-18T23:16:50.478Z,66.60
2022-12-18T23:19:19.456Z,66.74
2022-12-18T23:21:45.896Z,66.71
2022-12-18T23:24:12.523Z,67.07
2022-12-18T23:26:39.069Z,66.97
2022-12-18T23:29:05.865Z,67.21
2022-12-18T23:31:35.233Z,67.15
2022-12-18T23:34:03.275Z,67.02
2022-12-18T23:36:30.562Z,67.21
2022-12-18T23:39:01.805Z,66.90
2022-12-18T23:41:31.307Z,67.00
2022-12-18T23:43:59.044Z,66.82
2022-12-18T23:46:32.078Z,67.29
2022-12-18T23:48:59.961Z,66.53
2022-12-18T23:51:27.259Z,66.71
2022-12-18T23:53:56.353Z,66.88
2022-12-18T23:56:23.562Z,66.81
2022-12-18T23:58:50.797Z,67.11
